Seafrance Rodin — FOBQ — position and weather

sailwx.info

Track history (hours):
 
Tides and Currents Weather Stations Pressure Air Temp Water Temp Dewpoint Dewpoint Depression Visibility Wind Speed Wind Dir Waves Ship Positions

Seafrance Rodin

Operator: SeaFrance

Last reported at 2020-Sep-29 05:00 UTC. Time now 2020-Sep-29 06:50 UTC.
Position N 51°06' E 001°22'.

Length 185 m; draft 5.8 m.

Type: Ship (hazmat cat C). MMSI: 227022800.

Date/timePositionNaut miles runAvg speedWind from/ knotsBaromVisibWave heightAir tempDewpointWater temp
2020-Sep-29 05:00N 51°06' E 001°22'2 3.1
2020-Sep-29 04:29N 51°07' E 001°20'11 2.7
2020-Sep-29 00:30N 50°60' E 001°32'5 1.8
2020-Sep-28 22:00N 51°01' E 001°39'3 1.5
2020-Sep-28 20:00N 50°58' E 001°39'816.4
2020-Sep-28 19:30N 51°03' E 001°29'7 7.0
2020-Sep-28 18:30N 51°07' E 001°20'8 8.4
2020-Sep-28 17:30N 51°03' E 001°32'815.5
2020-Sep-28 17:00N 50°59' E 001°42'6 5.8
2020-Sep-28 16:00N 50°58' E 001°51'2210.8
2020-Sep-28 14:00N 51°07' E 001°20'2110.4
2020-Sep-28 12:01N 50°58' E 001°50'1 1.7
2020-Sep-28 11:30N 50°58' E 001°51'0 0.2
2020-Sep-28 11:00N 50°58' E 001°51'713.9
2020-Sep-28 10:30N 50°59' E 001°40'12 6.0
2020-Sep-28 08:30N 51°07' E 001°26'1717.4
2020-Sep-28 07:30N 50°58' E 001°50'9 2.1
2020-Sep-28 03:01N 51°01' E 001°35'10 7.0
2020-Sep-28 01:30N 50°58' E 001°51'0 0.0
2020-Sep-28 01:00N 50°58' E 001°51'0 0.0
2020-Sep-27 22:01N 50°58' E 001°51'4 2.1
2020-Sep-27 20:01N 50°58' E 001°45'1817.9
2020-Sep-27 19:00N 51°07' E 001°20'2110.6
2020-Sep-27 17:00N 50°58' E 001°50'21 7.0
2020-Sep-27 14:00N 51°07' E 001°20'1010.2
2020-Sep-27 13:01N 51°03' E 001°34'12 3.9
2020-Sep-27 10:01N 50°58' E 001°51'0 0.0
2020-Sep-27 07:30N 50°58' E 001°51'0 0.0
2020-Sep-27 03:01N 50°58' E 001°51'22 5.4
2020-Sep-26 23:00N 51°07' E 001°20'1515.5
2020-Sep-26 22:00N 50°59' E 001°41'16 5.2
2020-Sep-26 19:00N 51°07' E 001°20'7 1.8
2020-Sep-26 15:00N 51°03' E 001°28'14 3.6
2020-Sep-26 11:00N 50°58' E 001°50'2113.6
2020-Sep-26 09:29N 51°07' E 001°20'12 8.4
2020-Sep-26 08:01N 51°01' E 001°37'816.1
2020-Sep-26 07:30N 50°58' E 001°49'1 2.8
2020-Sep-26 07:00N 50°58' E 001°51'0 0.0
2020-Sep-26 06:30N 50°58' E 001°51'1010.5
2020-Sep-26 05:31N 50°59' E 001°35'2 0.3
2020-Sep-26 00:31N 51°00' E 001°35'1111.3
2020-Sep-25 23:30N 51°07' E 001°20'22 7.2
2020-Sep-25 20:30N 50°58' E 001°51'1717.3
2020-Sep-25 19:31N 51°04' E 001°26'1 0.2
2020-Sep-25 14:31N 51°05' E 001°25'4 7.8
2020-Sep-25 14:00N 51°07' E 001°20'0 0.0
2020-Sep-25 13:30N 51°07' E 001°20'3 0.7
2020-Sep-25 08:31N 51°07' E 001°26'1818.1
2020-Sep-25 07:30N 50°58' E 001°51'0 0.6
2020-Sep-25 07:00N 50°58' E 001°51'6 5.6
2020-Sep-25 06:01N 50°58' E 001°42'17 8.3
2020-Sep-25 04:00N 51°07' E 001°20'22 6.2
2020-Sep-25 00:30N 50°58' E 001°51'0 0.0
2020-Sep-24 17:00N 50°58' E 001°51'0 0.0
2020-Sep-24 16:01N 50°58' E 001°51'0 0.0
2020-Sep-24 15:31N 50°58' E 001°51'0 0.0
2020-Sep-24 14:01N 50°58' E 001°51'0 0.0
2020-Sep-24 07:30N 50°58' E 001°51'0 0.0
2020-Sep-24 06:31N 50°58' E 001°51'3 3.0
2020-Sep-24 05:30N 50°58' E 001°46'10 3.8
2020-Sep-24 03:01N 51°03' E 001°34'918.6
2020-Sep-24 02:30N 50°58' E 001°46'3 6.6
2020-Sep-24 02:00N 50°58' E 001°51'4 0.8
2020-Sep-23 21:31N 50°58' E 001°45'1 0.6
2020-Sep-23 20:01N 50°58' E 001°47'1118.6
2020-Sep-23 19:25N 51°02' E 001°31'019.4
2020-Sep-23 19:24N 51°02' E 001°30'819.5
2020-Sep-23 19:01N 51°07' E 001°21'12 3.1
2020-Sep-23 15:01N 50°59' E 001°36'1310.4
2020-Sep-23 13:46N 51°07' E 001°20'2212.3
2020-Sep-23 12:00N 50°58' E 001°51'0 0.0
2020-Sep-23 11:00N 50°58' E 001°51'714.6
2020-Sep-23 10:30N 50°59' E 001°40'7 0.9
2020-Sep-23 02:00N 50°58' E 001°51'22 7.1
2020-Sep-22 22:57N 51°07' E 001°20'22 3.4
2020-Sep-22 16:30N 50°58' E 001°51'0 0.0
2020-Sep-22 16:01N 50°58' E 001°51'1 1.3
2020-Sep-22 15:30N 50°58' E 001°50'1 0.2
2020-Sep-22 12:00N 50°58' E 001°51'0 0.4
2020-Sep-22 11:00N 50°58' E 001°51'1817.9
2020-Sep-22 10:00N 51°05' E 001°24'4 7.3
2020-Sep-22 09:30N 51°08' E 001°20'13 8.8
2020-Sep-22 08:01N 51°02' E 001°39'816.4
2020-Sep-22 07:30N 50°58' E 001°51'0 0.6
2020-Sep-22 07:00N 50°58' E 001°51'2110.5
2020-Sep-22 05:00N 51°07' E 001°21'1 0.8
2020-Sep-22 04:00N 51°07' E 001°20'5 9.3
2020-Sep-22 03:30N 51°07' E 001°27'5 1.0
2020-Sep-21 23:00N 51°07' E 001°20'1312.7
2020-Sep-21 22:00N 51°01' E 001°37'714.7
2020-Sep-21 21:31N 50°58' E 001°48'2 1.8
2020-Sep-21 20:28N 50°58' E 001°51'15 5.2
2020-Sep-21 17:30N 51°05' E 001°29'1510.3
2020-Sep-21 16:00N 50°58' E 001°51'7 1.3
2020-Sep-21 10:30N 50°59' E 001°40'14 6.9
2020-Sep-21 08:30N 51°07' E 001°23'1818.8
2020-Sep-21 07:30N 50°58' E 001°49'10 4.9
2020-Sep-21 05:31N 51°00' E 001°33'11 2.8
2020-Sep-21 01:29N 50°58' E 001°51'0 0.0
2020-Sep-21 00:29N 50°58' E 001°51'0 0.0
2020-Sep-20 23:29N 50°58' E 001°51'10 2.6
2020-Sep-20 19:30N 50°60' E 001°35'918.1
2020-Sep-20 19:00N 51°06' E 001°24'3 2.8
2020-Sep-20 17:56N 51°07' E 001°20'615.4
2020-Sep-20 17:30N 51°04' E 001°29'918.5
2020-Sep-20 17:00N 50°59' E 001°42'611.7
2020-Sep-20 16:29N 50°58' E 001°51'0 0.0
2020-Sep-20 15:59N 50°58' E 001°51'1611.0
2020-Sep-20 14:31N 51°05' E 001°28'8 3.8
2020-Sep-20 12:30N 51°01' E 001°38'816.7
2020-Sep-20 12:00N 50°58' E 001°51'1 1.0
2020-Sep-20 11:28N 50°58' E 001°52'0 0.0
2020-Sep-20 10:28N 50°58' E 001°52'0 0.0
2020-Sep-20 08:28N 50°58' E 001°52'0 0.0
2020-Sep-20 06:58N 50°58' E 001°52'0 0.0
2020-Sep-20 05:58N 50°58' E 001°52'17 2.8
2020-Sep-20 00:00N 51°04' E 001°27'17 4.8
2020-Sep-19 20:30N 50°58' E 001°51'1812.3
2020-Sep-19 19:01N 51°05' E 001°24'3 2.0
2020-Sep-19 17:31N 51°05' E 001°29'1515.4
2020-Sep-19 16:30N 50°58' E 001°51'22 8.6
2020-Sep-19 14:00N 51°07' E 001°20'22 7.2
2020-Sep-19 11:00N 50°58' E 001°51'1515.5
2020-Sep-19 10:00N 51°04' E 001°28'14 5.7
2020-Sep-19 07:30N 50°58' E 001°49'1 2.7
2020-Sep-19 07:00N 50°58' E 001°51'19 9.5
2020-Sep-19 05:01N 51°06' E 001°24'  
Track history (hours):
 
Tides and Currents Weather Stations Pressure Air Temp Water Temp Dewpoint Dewpoint Depression Visibility Wind Speed Wind Dir Waves Ship Positions

Seafrance Rodin

Operator: SeaFrance

Last reported at 2020-Sep-29 05:00 UTC. Time now 2020-Sep-29 06:50 UTC.
Position N 51°06' E 001°22'.

Length 185 m; draft 5.8 m.

Type: Ship (hazmat cat C). MMSI: 227022800.

Date/timePositionNaut miles runAvg speedWind from/ knotsBaromVisibWave heightAir tempDewpointWater temp
2020-Sep-29 05:00N 51°06' E 001°22'2 3.1
2020-Sep-29 04:29N 51°07' E 001°20'11 2.7
2020-Sep-29 00:30N 50°60' E 001°32'5 1.8
2020-Sep-28 22:00N 51°01' E 001°39'3 1.5
2020-Sep-28 20:00N 50°58' E 001°39'816.4
2020-Sep-28 19:30N 51°03' E 001°29'7 7.0
2020-Sep-28 18:30N 51°07' E 001°20'8 8.4
2020-Sep-28 17:30N 51°03' E 001°32'815.5
2020-Sep-28 17:00N 50°59' E 001°42'6 5.8
2020-Sep-28 16:00N 50°58' E 001°51'2210.8
2020-Sep-28 14:00N 51°07' E 001°20'2110.4
2020-Sep-28 12:01N 50°58' E 001°50'1 1.7
2020-Sep-28 11:30N 50°58' E 001°51'0 0.2
2020-Sep-28 11:00N 50°58' E 001°51'713.9
2020-Sep-28 10:30N 50°59' E 001°40'12 6.0
2020-Sep-28 08:30N 51°07' E 001°26'1717.4
2020-Sep-28 07:30N 50°58' E 001°50'9 2.1
2020-Sep-28 03:01N 51°01' E 001°35'10 7.0
2020-Sep-28 01:30N 50°58' E 001°51'0 0.0
2020-Sep-28 01:00N 50°58' E 001°51'0 0.0
2020-Sep-27 22:01N 50°58' E 001°51'4 2.1
2020-Sep-27 20:01N 50°58' E 001°45'1817.9
2020-Sep-27 19:00N 51°07' E 001°20'2110.6
2020-Sep-27 17:00N 50°58' E 001°50'21 7.0
2020-Sep-27 14:00N 51°07' E 001°20'1010.2
2020-Sep-27 13:01N 51°03' E 001°34'12 3.9
2020-Sep-27 10:01N 50°58' E 001°51'0 0.0
2020-Sep-27 07:30N 50°58' E 001°51'0 0.0
2020-Sep-27 03:01N 50°58' E 001°51'22 5.4
2020-Sep-26 23:00N 51°07' E 001°20'1515.5
2020-Sep-26 22:00N 50°59' E 001°41'16 5.2
2020-Sep-26 19:00N 51°07' E 001°20'7 1.8
2020-Sep-26 15:00N 51°03' E 001°28'14 3.6
2020-Sep-26 11:00N 50°58' E 001°50'2113.6
2020-Sep-26 09:29N 51°07' E 001°20'12 8.4
2020-Sep-26 08:01N 51°01' E 001°37'816.1
2020-Sep-26 07:30N 50°58' E 001°49'1 2.8
2020-Sep-26 07:00N 50°58' E 001°51'0 0.0
2020-Sep-26 06:30N 50°58' E 001°51'1010.5
2020-Sep-26 05:31N 50°59' E 001°35'2 0.3
2020-Sep-26 00:31N 51°00' E 001°35'1111.3
2020-Sep-25 23:30N 51°07' E 001°20'22 7.2
2020-Sep-25 20:30N 50°58' E 001°51'1717.3
2020-Sep-25 19:31N 51°04' E 001°26'1 0.2
2020-Sep-25 14:31N 51°05' E 001°25'4 7.8
2020-Sep-25 14:00N 51°07' E 001°20'0 0.0
2020-Sep-25 13:30N 51°07' E 001°20'3 0.7
2020-Sep-25 08:31N 51°07' E 001°26'1818.1
2020-Sep-25 07:30N 50°58' E 001°51'0 0.6
2020-Sep-25 07:00N 50°58' E 001°51'6 5.6
2020-Sep-25 06:01N 50°58' E 001°42'17 8.3
2020-Sep-25 04:00N 51°07' E 001°20'22 6.2
2020-Sep-25 00:30N 50°58' E 001°51'0 0.0
2020-Sep-24 17:00N 50°58' E 001°51'0 0.0
2020-Sep-24 16:01N 50°58' E 001°51'0 0.0
2020-Sep-24 15:31N 50°58' E 001°51'0 0.0
2020-Sep-24 14:01N 50°58' E 001°51'0 0.0
2020-Sep-24 07:30N 50°58' E 001°51'0 0.0
2020-Sep-24 06:31N 50°58' E 001°51'3 3.0
2020-Sep-24 05:30N 50°58' E 001°46'10 3.8
2020-Sep-24 03:01N 51°03' E 001°34'918.6
2020-Sep-24 02:30N 50°58' E 001°46'3 6.6
2020-Sep-24 02:00N 50°58' E 001°51'4 0.8
2020-Sep-23 21:31N 50°58' E 001°45'1 0.6
2020-Sep-23 20:01N 50°58' E 001°47'1118.6
2020-Sep-23 19:25N 51°02' E 001°31'019.4
2020-Sep-23 19:24N 51°02' E 001°30'819.5
2020-Sep-23 19:01N 51°07' E 001°21'12 3.1
2020-Sep-23 15:01N 50°59' E 001°36'1310.4
2020-Sep-23 13:46N 51°07' E 001°20'2212.3
2020-Sep-23 12:00N 50°58' E 001°51'0 0.0
2020-Sep-23 11:00N 50°58' E 001°51'714.6
2020-Sep-23 10:30N 50°59' E 001°40'7 0.9
2020-Sep-23 02:00N 50°58' E 001°51'22 7.1
2020-Sep-22 22:57N 51°07' E 001°20'22 3.4
2020-Sep-22 16:30N 50°58' E 001°51'0 0.0
2020-Sep-22 16:01N 50°58' E 001°51'1 1.3
2020-Sep-22 15:30N 50°58' E 001°50'1 0.2
2020-Sep-22 12:00N 50°58' E 001°51'0 0.4
2020-Sep-22 11:00N 50°58' E 001°51'1817.9
2020-Sep-22 10:00N 51°05' E 001°24'4 7.3
2020-Sep-22 09:30N 51°08' E 001°20'13 8.8
2020-Sep-22 08:01N 51°02' E 001°39'816.4
2020-Sep-22 07:30N 50°58' E 001°51'0 0.6
2020-Sep-22 07:00N 50°58' E 001°51'2110.5
2020-Sep-22 05:00N 51°07' E 001°21'1 0.8
2020-Sep-22 04:00N 51°07' E 001°20'5 9.3
2020-Sep-22 03:30N 51°07' E 001°27'5 1.0
2020-Sep-21 23:00N 51°07' E 001°20'1312.7
2020-Sep-21 22:00N 51°01' E 001°37'714.7
2020-Sep-21 21:31N 50°58' E 001°48'2 1.8
2020-Sep-21 20:28N 50°58' E 001°51'15 5.2
2020-Sep-21 17:30N 51°05' E 001°29'1510.3
2020-Sep-21 16:00N 50°58' E 001°51'7 1.3
2020-Sep-21 10:30N 50°59' E 001°40'14 6.9
2020-Sep-21 08:30N 51°07' E 001°23'1818.8
2020-Sep-21 07:30N 50°58' E 001°49'10 4.9
2020-Sep-21 05:31N 51°00' E 001°33'11 2.8
2020-Sep-21 01:29N 50°58' E 001°51'0 0.0
2020-Sep-21 00:29N 50°58' E 001°51'0 0.0
2020-Sep-20 23:29N 50°58' E 001°51'10 2.6
2020-Sep-20 19:30N 50°60' E 001°35'918.1
2020-Sep-20 19:00N 51°06' E 001°24'3 2.8
2020-Sep-20 17:56N 51°07' E 001°20'615.4
2020-Sep-20 17:30N 51°04' E 001°29'918.5
2020-Sep-20 17:00N 50°59' E 001°42'611.7
2020-Sep-20 16:29N 50°58' E 001°51'0 0.0
2020-Sep-20 15:59N 50°58' E 001°51'1611.0
2020-Sep-20 14:31N 51°05' E 001°28'8 3.8
2020-Sep-20 12:30N 51°01' E 001°38'816.7
2020-Sep-20 12:00N 50°58' E 001°51'1 1.0
2020-Sep-20 11:28N 50°58' E 001°52'0 0.0
2020-Sep-20 10:28N 50°58' E 001°52'0 0.0
2020-Sep-20 08:28N 50°58' E 001°52'0 0.0
2020-Sep-20 06:58N 50°58' E 001°52'0 0.0
2020-Sep-20 05:58N 50°58' E 001°52'17 2.8
2020-Sep-20 00:00N 51°04' E 001°27'17 4.8
2020-Sep-19 20:30N 50°58' E 001°51'1812.3
2020-Sep-19 19:01N 51°05' E 001°24'3 2.0
2020-Sep-19 17:31N 51°05' E 001°29'1515.4
2020-Sep-19 16:30N 50°58' E 001°51'22 8.6
2020-Sep-19 14:00N 51°07' E 001°20'22 7.2
2020-Sep-19 11:00N 50°58' E 001°51'1515.5
2020-Sep-19 10:00N 51°04' E 001°28'14 5.7
2020-Sep-19 07:30N 50°58' E 001°49'1 2.7
2020-Sep-19 07:00N 50°58' E 001°51'19 9.5
2020-Sep-19 05:01N 51°06' E 001°24'  

Dump ship's entire track history